This is the latest recevied weather packets stored in our database for station/object N6WDO. If no packets are shown the sender has not sent any weather packets the latest 1 day(s).
| Time | Temp. | Humidity | Pressure | Rain* | Wind** | Luminosity | Snow |
|---|---|---|---|---|---|---|---|
| 1778097466 | 20° C | 55% | 1020.9 hPa | 0 mm | - | 903 W/m² | - |
| 1778095951 | 19.44° C | 58% | 1021.1 hPa | 0 mm | - | 780 W/m² | - |
| 1778095041 | 20° C | 58% | 1021.2 hPa | 0 mm | - | 237 W/m² | - |
| 1778094131 | 20.56° C | 55% | 1021.4 hPa | 0 mm | - | 856 W/m² | - |
| 1778093828 | 20.56° C | 57% | 1021.4 hPa | 0 mm | - | 441 W/m² | - |
| 1778092610 | 18.89° C | 56% | 1021.5 hPa | 0 mm | - | 810 W/m² | - |
| 1778091700 | 18.33° C | 59% | 1021.4 hPa | 0 mm | - | 418 W/m² | - |
| 1778090792 | 18.33° C | 59% | 1021.4 hPa | 0 mm | - | 254 W/m² | - |
| 1778088974 | 19.44° C | 54% | 1021.4 hPa | 0 mm | - | 639 W/m² | - |
| 1778088368 | 18.89° C | 56% | 1021.5 hPa | 0 mm | - | 602 W/m² | - |
| 1778086848 | 17.22° C | 65% | 1021.5 hPa | 0 mm | - | 532 W/m² | - |
| 1778086242 | 17.78° C | 62% | 1021.4 hPa | 0 mm | - | 507 W/m² | - |
| 1778085939 | 16.67° C | 63% | 1021.4 hPa | 0 mm | - | 495 W/m² | - |
| 1778084422 | 16.11° C | 65% | 1021.7 hPa | 0 mm | - | 428 W/m² | - |
| 1778083211 | 16.11° C | 67% | 1021.5 hPa | 0 mm | - | 369 W/m² | - |
| 1778080591 | 15.56° C | 76% | 1021.7 hPa | 0 mm | - | 201 W/m² | - |
| 1778080287 | 15° C | 79% | 1021.5 hPa | 0 mm | - | 174 W/m² | - |
| 1778079984 | 14.44° C | 77% | 1021.8 hPa | 0 mm | - | 157 W/m² | - |
| 1778079075 | 13.33° C | 82% | 1021.7 hPa | 0 mm | - | 124 W/m² | - |
| 1778078772 | 12.78° C | 84% | 1021.5 hPa | 0 mm | - | 114 W/m² | - |
| 1778076656 | 9.44° C | 99% | 1021.7 hPa | 0 mm | - | 49 W/m² | - |
| 1778076353 | 8.89° C | 99% | 1021.5 hPa | 0 mm | - | 52 W/m² | - |
| 1778075747 | 7.78° C | 99% | 1021.3 hPa | 0 mm | - | 28 W/m² | - |
| 1778075443 | 7.78° C | 99% | 1021.4 hPa | 0 mm | - | 24 W/m² | - |
| 1778074533 | 6.67° C | 99% | 1021.4 hPa | 0 mm | - | 23 W/m² | - |
* Rain latest hour (hover to see other rain measurements)
** Current wind speed in m/s (hover to see current wind gust speed)